createdAt,value
2019-06-08T00:00:04.285Z,22.75
2019-06-08T00:01:04.253Z,22.86
2019-06-08T00:02:04.242Z,22.83
2019-06-08T00:03:04.237Z,22.71
2019-06-08T00:04:04.227Z,22.82
2019-06-08T00:05:04.234Z,22.80
2019-06-08T00:06:04.218Z,22.87
2019-06-08T00:07:04.187Z,22.86
2019-06-08T00:08:04.176Z,22.84
2019-06-08T00:09:04.167Z,22.80
2019-06-08T00:10:04.177Z,22.84
2019-06-08T00:11:04.143Z,22.90
2019-06-08T00:12:04.135Z,22.84
2019-06-08T00:13:04.121Z,22.82
2019-06-08T00:14:04.110Z,22.83
2019-06-08T00:15:04.123Z,22.80
2019-06-08T00:16:04.094Z,22.80
2019-06-08T00:17:04.079Z,22.72
2019-06-08T00:18:04.069Z,22.82
2019-06-08T00:19:04.055Z,22.82
2019-06-08T00:20:04.068Z,22.84
2019-06-08T00:21:04.032Z,22.84
2019-06-08T00:22:04.023Z,22.78
2019-06-08T00:23:04.016Z,22.75
2019-06-08T00:24:04.008Z,22.78
2019-06-08T00:25:04.014Z,22.82
2019-06-08T00:26:04.002Z,22.80
2019-06-08T00:27:03.969Z,22.83
2019-06-08T00:28:03.958Z,22.80
2019-06-08T00:29:03.949Z,22.75
2019-06-08T00:30:03.937Z,22.74
2019-06-08T00:31:03.947Z,22.80
2019-06-08T00:32:03.911Z,22.75
2019-06-08T00:33:03.905Z,22.77
2019-06-08T00:34:03.897Z,22.77
2019-06-08T00:35:03.881Z,22.77
2019-06-08T00:36:03.890Z,22.78
2019-06-08T00:37:03.858Z,22.80
2019-06-08T00:38:03.851Z,22.80
2019-06-08T00:39:03.837Z,22.74
2019-06-08T00:40:03.822Z,22.77
2019-06-08T00:41:03.837Z,22.80
2019-06-08T00:42:03.803Z,22.78
2019-06-08T00:43:03.792Z,22.80
2019-06-08T00:44:03.790Z,22.71
2019-06-08T00:45:03.783Z,22.74
2019-06-08T00:46:03.781Z,22.77
2019-06-08T00:47:03.748Z,22.77
2019-06-08T00:48:03.737Z,22.71
2019-06-08T00:49:03.729Z,22.77
2019-06-08T00:50:03.714Z,22.77
2019-06-08T00:51:03.722Z,22.78
2019-06-08T00:52:03.711Z,22.78
2019-06-08T00:53:03.694Z,22.71
2019-06-08T00:54:03.673Z,22.82
2019-06-08T00:55:03.657Z,22.75
2019-06-08T00:56:03.674Z,22.69
2019-06-08T00:57:03.638Z,22.78
2019-06-08T00:58:03.630Z,22.71
2019-06-08T00:59:03.621Z,22.75
2019-06-08T01:00:10.193Z,22.75
2019-06-08T01:01:04.627Z,22.72
2019-06-08T01:02:03.580Z,22.72
2019-06-08T01:03:03.568Z,22.80
2019-06-08T01:04:03.561Z,22.71
2019-06-08T01:05:03.550Z,22.75
2019-06-08T01:06:03.539Z,22.78
2019-06-08T01:07:03.552Z,22.67
2019-06-08T01:08:03.828Z,22.64
2019-06-08T01:09:03.503Z,22.82
2019-06-08T01:10:03.497Z,22.69
2019-06-08T01:11:03.542Z,22.82
2019-06-08T01:12:03.494Z,22.74
2019-06-08T01:13:03.462Z,22.67
2019-06-08T01:14:03.448Z,22.69
2019-06-08T01:15:03.505Z,22.62
2019-06-08T01:16:03.429Z,22.68
2019-06-08T01:17:03.442Z,22.68
2019-06-08T01:18:04.294Z,22.72
2019-06-08T01:19:03.395Z,22.67
2019-06-08T01:20:03.386Z,22.72
2019-06-08T01:21:03.375Z,22.71
2019-06-08T01:22:03.385Z,22.68
2019-06-08T01:23:03.348Z,22.65
2019-06-08T01:24:03.338Z,22.72
2019-06-08T01:25:03.393Z,22.71
2019-06-08T01:26:03.315Z,22.69
2019-06-08T01:27:03.329Z,22.74
2019-06-08T01:28:03.297Z,22.72
2019-06-08T01:29:03.283Z,22.69
2019-06-08T01:30:03.326Z,22.72
2019-06-08T01:31:03.273Z,22.67
2019-06-08T01:32:03.319Z,22.67
2019-06-08T01:33:03.384Z,22.68
2019-06-08T01:34:03.231Z,22.67
2019-06-08T01:35:03.224Z,22.71
2019-06-08T01:36:03.210Z,22.67
2019-06-08T01:37:03.231Z,22.64
2019-06-08T01:38:03.196Z,22.74
2019-06-08T01:39:03.174Z,22.71
2019-06-08T01:40:03.165Z,22.62
2019-06-08T01:41:03.156Z,22.65
2019-06-08T01:42:03.164Z,22.64
2019-06-08T01:43:03.148Z,22.65
2019-06-08T01:44:03.121Z,22.68
2019-06-08T01:45:03.635Z,22.68
2019-06-08T01:46:03.095Z,22.68
2019-06-08T01:47:03.088Z,22.67
2019-06-08T01:48:18.830Z,22.75
2019-06-08T01:49:04.064Z,22.64
2019-06-08T01:50:03.051Z,22.71
2019-06-08T01:51:03.331Z,22.69
2019-06-08T01:52:03.034Z,22.71
2019-06-08T01:53:03.058Z,22.67
2019-06-08T01:54:03.010Z,22.62
2019-06-08T01:55:02.997Z,22.67
2019-06-08T01:56:02.987Z,22.65
2019-06-08T01:57:02.985Z,22.68
2019-06-08T01:58:02.985Z,22.67
2019-06-08T01:59:02.961Z,22.69
2019-06-08T02:00:28.722Z,22.64
2019-06-08T02:01:03.931Z,22.65
2019-06-08T02:02:02.943Z,22.56
2019-06-08T02:03:02.931Z,22.65
2019-06-08T02:04:02.896Z,22.74
2019-06-08T02:05:02.885Z,22.68
2019-06-08T02:06:02.948Z,22.68
2019-06-08T02:07:02.884Z,22.67
2019-06-08T02:08:02.856Z,22.67
2019-06-08T02:09:02.863Z,22.67
2019-06-08T02:10:02.833Z,22.67
2019-06-08T02:11:02.833Z,22.75
2019-06-08T02:12:02.807Z,22.60
2019-06-08T02:13:02.799Z,22.59
2019-06-08T02:14:02.808Z,22.68
2019-06-08T02:15:02.786Z,22.60
2019-06-08T02:16:02.769Z,22.65
2019-06-08T02:17:02.755Z,22.65
2019-06-08T02:18:02.744Z,22.64
2019-06-08T02:19:02.754Z,22.62
2019-06-08T02:20:02.719Z,22.67
2019-06-08T02:21:02.713Z,22.56
2019-06-08T02:22:02.697Z,22.62
2019-06-08T02:23:02.686Z,22.69
2019-06-08T02:24:02.696Z,22.59
2019-06-08T02:25:02.670Z,22.67
2019-06-08T02:26:02.658Z,22.57
2019-06-08T02:27:02.642Z,22.69
2019-06-08T02:28:02.728Z,22.67
2019-06-08T02:29:02.642Z,22.59
2019-06-08T02:30:02.631Z,22.60
2019-06-08T02:31:02.604Z,22.57
2019-06-08T02:32:02.595Z,22.57
2019-06-08T02:33:02.581Z,22.65
2019-06-08T02:34:02.607Z,22.69
2019-06-08T02:35:02.560Z,22.67
2019-06-08T02:36:02.549Z,22.60
2019-06-08T02:37:02.537Z,22.59
2019-06-08T02:38:02.531Z,22.68
2019-06-08T02:39:02.535Z,22.68
2019-06-08T02:40:02.503Z,22.59
2019-06-08T02:41:02.493Z,22.65
2019-06-08T02:42:02.482Z,22.57
2019-06-08T02:43:02.490Z,22.54
2019-06-08T02:44:02.461Z,22.60
2019-06-08T02:45:02.470Z,22.54
2019-06-08T02:46:02.451Z,22.53
2019-06-08T02:47:02.427Z,22.56
2019-06-08T02:48:02.413Z,22.57
2019-06-08T02:49:04.431Z,22.56
2019-06-08T02:50:02.418Z,22.60
2019-06-08T02:51:02.382Z,22.57
2019-06-08T02:52:02.369Z,22.59
2019-06-08T02:53:02.366Z,22.54
2019-06-08T02:54:02.350Z,22.54
2019-06-08T02:55:02.370Z,22.59
2019-06-08T02:56:02.340Z,22.59
2019-06-08T02:57:02.318Z,22.53
2019-06-08T02:58:02.303Z,22.65
2019-06-08T02:59:02.296Z,22.52
2019-06-08T03:00:02.311Z,22.60
2019-06-08T03:01:02.282Z,22.56
2019-06-08T03:02:02.257Z,22.56
2019-06-08T03:03:02.252Z,22.54
2019-06-08T03:04:02.243Z,22.59
2019-06-08T03:05:02.249Z,22.57
2019-06-08T03:06:02.216Z,22.54
2019-06-08T03:07:02.206Z,22.59
2019-06-08T03:08:02.197Z,22.57
2019-06-08T03:09:02.199Z,22.53
2019-06-08T03:10:02.192Z,22.60
2019-06-08T03:11:02.159Z,22.56
2019-06-08T03:12:02.149Z,22.59
2019-06-08T03:13:02.160Z,22.57
2019-06-08T03:14:02.130Z,22.59
2019-06-08T03:15:02.119Z,22.50
2019-06-08T03:16:02.132Z,22.52
2019-06-08T03:17:02.101Z,22.52
2019-06-08T03:18:02.106Z,22.59
2019-06-08T03:19:20.156Z,22.57
2019-06-08T03:20:03.069Z,22.60
2019-06-08T03:21:02.080Z,22.60
2019-06-08T03:22:02.039Z,22.56
2019-06-08T03:23:02.029Z,22.52
2019-06-08T03:24:02.022Z,22.60
2019-06-08T03:25:02.017Z,22.57
2019-06-08T03:26:02.019Z,22.44
2019-06-08T03:27:01.985Z,22.52
2019-06-08T03:28:01.975Z,22.53
2019-06-08T03:29:01.969Z,22.62
2019-06-08T03:30:15.235Z,22.46
2019-06-08T03:31:02.960Z,22.54
2019-06-08T03:32:01.936Z,22.49
2019-06-08T03:33:01.968Z,22.54
2019-06-08T03:34:01.937Z,22.50
2019-06-08T03:35:01.900Z,22.59
2019-06-08T03:36:01.908Z,22.56
2019-06-08T03:37:01.880Z,22.59
2019-06-08T03:38:01.865Z,22.47
2019-06-08T03:39:01.857Z,22.53
2019-06-08T03:40:01.842Z,22.57
2019-06-08T03:41:01.866Z,22.59
2019-06-08T03:42:01.840Z,22.52
2019-06-08T03:43:01.907Z,22.46
2019-06-08T03:44:01.801Z,22.60
2019-06-08T03:45:01.794Z,22.50
2019-06-08T03:46:01.780Z,22.57
2019-06-08T03:47:01.794Z,22.62
2019-06-08T03:48:01.755Z,22.57
2019-06-08T03:49:01.743Z,22.54
2019-06-08T03:50:01.749Z,22.52
2019-06-08T03:51:01.720Z,22.47
2019-06-08T03:52:01.734Z,22.57
2019-06-08T03:53:01.698Z,22.60
2019-06-08T03:54:01.695Z,22.49
2019-06-08T03:55:01.678Z,22.50
2019-06-08T03:56:01.673Z,22.57
2019-06-08T03:57:01.681Z,22.54
2019-06-08T03:58:01.642Z,22.50
2019-06-08T03:59:01.635Z,22.47
2019-06-08T04:00:01.619Z,22.53
2019-06-08T04:01:01.609Z,22.47
2019-06-08T04:02:01.620Z,22.54
2019-06-08T04:03:01.589Z,22.52
2019-06-08T04:04:01.579Z,22.54
2019-06-08T04:05:01.593Z,22.54
2019-06-08T04:06:01.566Z,22.59
2019-06-08T04:07:01.565Z,22.56
2019-06-08T04:08:01.535Z,22.47
2019-06-08T04:09:01.524Z,22.46
2019-06-08T04:10:01.512Z,22.53
2019-06-08T04:11:01.502Z,22.50
2019-06-08T04:12:01.513Z,22.49
2019-06-08T04:13:01.509Z,22.52
2019-06-08T04:14:01.470Z,22.52
2019-06-08T04:15:01.474Z,22.52
2019-06-08T04:16:01.448Z,22.52
2019-06-08T04:17:01.454Z,22.54
2019-06-08T04:18:01.422Z,22.43
2019-06-08T04:19:01.419Z,22.52
2019-06-08T04:20:10.340Z,22.52
2019-06-08T04:21:02.394Z,22.52
2019-06-08T04:22:01.399Z,22.52
2019-06-08T04:23:01.380Z,22.52
2019-06-08T04:24:01.362Z,22.47
2019-06-08T04:25:01.350Z,22.54
2019-06-08T04:26:01.337Z,22.52
2019-06-08T04:27:01.367Z,22.41
2019-06-08T04:28:01.314Z,22.54
2019-06-08T04:29:01.306Z,22.49
2019-06-08T04:30:01.292Z,22.52
2019-06-08T04:31:01.295Z,22.52
2019-06-08T04:32:01.291Z,22.52
2019-06-08T04:33:01.264Z,22.53
2019-06-08T04:34:01.279Z,22.52
2019-06-08T04:35:01.237Z,22.53
2019-06-08T04:36:01.228Z,22.49
2019-06-08T04:37:01.217Z,22.41
2019-06-08T04:38:01.225Z,22.50
2019-06-08T04:39:01.198Z,22.47
2019-06-08T04:40:01.188Z,22.43
2019-06-08T04:41:01.173Z,22.54
2019-06-08T04:42:01.158Z,22.47
2019-06-08T04:43:01.169Z,22.49
2019-06-08T04:44:01.140Z,22.52
2019-06-08T04:45:01.127Z,22.52
2019-06-08T04:46:01.118Z,22.52
2019-06-08T04:47:01.108Z,22.52
2019-06-08T04:48:01.116Z,22.46
2019-06-08T04:49:01.103Z,22.53
2019-06-08T04:50:20.262Z,22.53
2019-06-08T04:51:02.069Z,22.49
2019-06-08T04:52:01.053Z,22.57
2019-06-08T04:53:01.058Z,22.53
2019-06-08T04:54:01.035Z,22.47
2019-06-08T04:55:01.022Z,22.52
2019-06-08T04:56:01.009Z,22.52
2019-06-08T04:57:00.995Z,22.50
2019-06-08T04:58:01.016Z,22.50
2019-06-08T04:59:00.973Z,22.50
2019-06-08T05:00:11.091Z,22.53
2019-06-08T05:01:01.948Z,22.54
2019-06-08T05:02:00.941Z,22.53
2019-06-08T05:03:00.952Z,22.52
2019-06-08T05:04:00.920Z,22.56
2019-06-08T05:05:00.910Z,22.50
2019-06-08T05:06:00.896Z,22.50
2019-06-08T05:07:00.890Z,22.53
2019-06-08T05:08:00.898Z,22.52
2019-06-08T05:09:00.880Z,22.52
2019-06-08T05:10:00.851Z,22.52
2019-06-08T05:11:00.841Z,22.50
2019-06-08T05:12:00.832Z,22.50
2019-06-08T05:13:00.841Z,22.52
2019-06-08T05:14:00.808Z,22.52
2019-06-08T05:15:00.796Z,22.53
2019-06-08T05:16:00.789Z,22.52
2019-06-08T05:17:00.778Z,22.53
2019-06-08T05:18:00.793Z,22.53
2019-06-08T05:19:00.752Z,22.50
2019-06-08T05:20:00.744Z,22.41
2019-06-08T05:21:00.736Z,22.54
2019-06-08T05:22:00.719Z,22.52
2019-06-08T05:23:00.729Z,22.53
2019-06-08T05:24:00.708Z,22.50
2019-06-08T05:25:00.689Z,22.56
2019-06-08T05:26:00.675Z,22.49
2019-06-08T05:27:00.673Z,22.56
2019-06-08T05:28:00.655Z,22.52
2019-06-08T05:29:00.695Z,22.49
2019-06-08T05:30:08.076Z,22.52
2019-06-08T05:31:01.618Z,22.47
2019-06-08T05:32:00.610Z,22.53
2019-06-08T05:33:00.604Z,22.52
2019-06-08T05:34:00.610Z,22.49
2019-06-08T05:35:00.575Z,22.46
2019-06-08T05:36:00.568Z,22.53
2019-06-08T05:37:00.554Z,22.53
2019-06-08T05:38:00.543Z,22.46
2019-06-08T05:39:00.551Z,22.52
2019-06-08T05:40:00.535Z,22.49
2019-06-08T05:41:00.512Z,22.52
2019-06-08T05:42:00.502Z,22.53
2019-06-08T05:43:00.486Z,22.47
2019-06-08T05:44:00.501Z,22.52
2019-06-08T05:45:00.466Z,22.53
2019-06-08T05:46:00.457Z,22.47
2019-06-08T05:47:00.443Z,22.50
2019-06-08T05:48:00.433Z,22.50
2019-06-08T05:49:00.444Z,22.52
2019-06-08T05:50:00.414Z,22.49
2019-06-08T05:51:04.167Z,22.49
2019-06-08T05:52:00.388Z,22.46
2019-06-08T05:53:00.379Z,22.49
2019-06-08T05:54:02.985Z,22.50
2019-06-08T05:55:00.354Z,22.50
2019-06-08T05:56:00.367Z,22.47
2019-06-08T05:57:00.333Z,22.53
2019-06-08T05:58:00.322Z,22.50
2019-06-08T05:59:00.331Z,22.56
2019-06-08T06:00:00.302Z,22.56
2019-06-08T06:01:00.288Z,22.49
2019-06-08T06:02:00.280Z,22.54
2019-06-08T06:03:00.269Z,22.50
2019-06-08T06:04:00.279Z,22.43
2019-06-08T06:05:00.247Z,22.46
2019-06-08T06:06:00.236Z,22.53
2019-06-08T06:07:00.224Z,22.47
2019-06-08T06:08:00.214Z,22.47
2019-06-08T06:09:00.223Z,22.46
2019-06-08T06:10:00.188Z,22.49
2019-06-08T06:11:00.178Z,22.52
2019-06-08T06:12:00.171Z,22.49
2019-06-08T06:13:00.154Z,22.54
2019-06-08T06:14:00.165Z,22.57
2019-06-08T06:15:00.135Z,22.47
2019-06-08T06:16:00.125Z,22.52
2019-06-08T06:17:00.115Z,22.47
2019-06-08T06:18:00.103Z,22.49
2019-06-08T06:19:00.112Z,22.44
2019-06-08T06:20:00.081Z,22.46
2019-06-08T06:21:10.252Z,22.52
2019-06-08T06:22:01.055Z,22.49
2019-06-08T06:23:00.049Z,22.52
2019-06-08T06:24:00.054Z,22.49
2019-06-08T06:25:00.027Z,22.52
2019-06-08T06:26:00.014Z,22.52
2019-06-08T06:27:00.001Z,22.47
2019-06-08T06:27:59.992Z,22.41
2019-06-08T06:29:00.017Z,22.52
2019-06-08T06:29:59.970Z,22.50
2019-06-08T06:30:59.956Z,22.52
2019-06-08T06:31:59.948Z,22.56
2019-06-08T06:32:59.941Z,22.47
2019-06-08T06:33:59.946Z,22.53
2019-06-08T06:34:59.917Z,22.47
2019-06-08T06:35:59.901Z,22.52
2019-06-08T06:36:59.893Z,22.52
2019-06-08T06:37:59.881Z,22.53
2019-06-08T06:38:59.902Z,22.41
2019-06-08T06:39:59.859Z,22.47
2019-06-08T06:40:59.859Z,22.52
2019-06-08T06:41:59.838Z,22.53
2019-06-08T06:42:59.856Z,22.47
2019-06-08T06:43:59.810Z,22.44
2019-06-08T06:44:59.835Z,22.52
2019-06-08T06:45:59.790Z,22.50
2019-06-08T06:46:59.781Z,22.50
2019-06-08T06:47:59.768Z,22.44
2019-06-08T06:48:59.756Z,22.54
2019-06-08T06:49:59.770Z,22.43
2019-06-08T06:50:59.737Z,22.54
2019-06-08T06:51:59.725Z,22.52
2019-06-08T06:52:59.723Z,22.46
2019-06-08T06:53:59.701Z,22.57
2019-06-08T06:54:59.714Z,22.49
2019-06-08T06:55:59.687Z,22.52
2019-06-08T06:56:59.701Z,22.47
2019-06-08T06:57:59.660Z,22.44
2019-06-08T06:58:59.644Z,22.44
2019-06-08T06:59:59.661Z,22.53
2019-06-08T07:00:59.629Z,22.49
2019-06-08T07:01:59.612Z,22.49
2019-06-08T07:02:59.602Z,22.47
2019-06-08T07:03:59.590Z,22.44
2019-06-08T07:04:59.614Z,22.57
2019-06-08T07:05:59.569Z,22.56
2019-06-08T07:06:59.559Z,22.54
2019-06-08T07:07:59.557Z,22.43
2019-06-08T07:08:59.539Z,22.49
2019-06-08T07:09:59.548Z,22.53
2019-06-08T07:10:59.515Z,22.54
2019-06-08T07:11:59.502Z,22.44
2019-06-08T07:12:59.515Z,22.56
2019-06-08T07:13:59.480Z,22.52
2019-06-08T07:14:59.482Z,22.49
2019-06-08T07:16:16.916Z,22.53
2019-06-08T07:17:00.444Z,22.53
2019-06-08T07:17:59.438Z,22.57
2019-06-08T07:18:59.424Z,22.52
2019-06-08T07:19:59.413Z,22.43
2019-06-08T07:20:59.422Z,22.53
2019-06-08T07:21:59.409Z,22.52
2019-06-08T07:22:59.383Z,22.49
2019-06-08T07:23:59.373Z,22.53
2019-06-08T07:24:59.362Z,22.49
2019-06-08T07:25:59.368Z,22.47
2019-06-08T07:26:59.341Z,22.53
2019-06-08T07:27:59.457Z,22.53
2019-06-08T07:28:59.314Z,22.47
2019-06-08T07:29:59.305Z,22.44
2019-06-08T07:30:59.312Z,22.54
2019-06-08T07:31:59.413Z,22.44
2019-06-08T07:32:59.491Z,22.52
2019-06-08T07:34:00.045Z,22.54
2019-06-08T07:34:59.422Z,22.52
2019-06-08T07:35:59.887Z,22.44
2019-06-08T07:36:59.587Z,22.54
2019-06-08T07:37:59.772Z,22.52
2019-06-08T07:38:59.668Z,22.54
2019-06-08T07:40:00.167Z,22.49
2019-06-08T07:41:01.425Z,22.47
2019-06-08T07:42:00.029Z,22.46
2019-06-08T07:43:00.422Z,22.52
2019-06-08T07:43:59.151Z,22.44
2019-06-08T07:45:00.393Z,22.50
2019-06-08T07:45:59.158Z,22.50
2019-06-08T07:47:00.144Z,22.47
2019-06-08T07:48:00.486Z,22.47
2019-06-08T07:48:59.093Z,22.54
2019-06-08T07:49:59.561Z,22.49
2019-06-08T07:50:59.095Z,22.56
2019-06-08T07:52:09.425Z,22.47
2019-06-08T07:53:00.048Z,22.50
2019-06-08T07:53:59.930Z,22.49
2019-06-08T07:54:59.026Z,22.43
2019-06-08T07:55:59.798Z,22.49
2019-06-08T07:56:59.184Z,22.50
2019-06-08T07:58:00.264Z,22.46
2019-06-08T07:58:59.091Z,22.56
2019-06-08T08:00:00.171Z,22.52
2019-06-08T08:01:07.337Z,22.50
2019-06-08T08:01:59.950Z,22.49
2019-06-08T08:02:58.940Z,22.52
2019-06-08T08:03:58.929Z,22.52
2019-06-08T08:04:58.957Z,22.57
2019-06-08T08:05:58.906Z,22.54
2019-06-08T08:06:58.937Z,22.44
2019-06-08T08:07:59.085Z,22.50
2019-06-08T08:08:58.977Z,22.54
2019-06-08T08:09:58.931Z,22.49
2019-06-08T08:10:58.852Z,22.53
2019-06-08T08:11:59.622Z,22.52
2019-06-08T08:12:58.991Z,22.47
2019-06-08T08:13:59.166Z,22.52
2019-06-08T08:14:59.765Z,22.52
2019-06-08T08:16:00.634Z,22.52
2019-06-08T08:16:59.136Z,22.54
2019-06-08T08:17:59.636Z,22.52
2019-06-08T08:18:59.753Z,22.50
2019-06-08T08:19:59.390Z,22.49
2019-06-08T08:21:07.403Z,22.50
2019-06-08T08:22:03.176Z,22.53
2019-06-08T08:23:05.535Z,22.52
2019-06-08T08:24:01.484Z,22.47
2019-06-08T08:25:03.260Z,22.47
2019-06-08T08:26:01.731Z,22.52
2019-06-08T08:27:01.995Z,22.52
2019-06-08T08:28:01.006Z,22.50
2019-06-08T08:29:01.302Z,22.49
2019-06-08T08:30:01.121Z,22.49
2019-06-08T08:31:01.601Z,22.49
2019-06-08T08:32:00.673Z,22.53
2019-06-08T08:33:01.758Z,22.54
2019-06-08T08:34:05.364Z,22.49
2019-06-08T08:35:02.737Z,22.53
2019-06-08T08:36:00.618Z,22.47
2019-06-08T08:37:04.022Z,22.53
2019-06-08T08:38:03.898Z,22.53
2019-06-08T08:39:01.038Z,22.44
2019-06-08T08:40:00.264Z,22.52
2019-06-08T08:41:06.289Z,22.50
2019-06-08T08:42:04.527Z,22.41
2019-06-08T08:43:01.475Z,22.56
2019-06-08T08:44:04.166Z,22.49
2019-06-08T08:45:04.740Z,22.44
2019-06-08T08:46:01.843Z,22.53
2019-06-08T08:47:00.564Z,22.47
2019-06-08T08:48:14.402Z,22.49
2019-06-08T08:49:08.425Z,22.54
2019-06-08T08:50:01.899Z,22.47
2019-06-08T08:51:00.750Z,22.47
2019-06-08T08:52:00.055Z,22.50
2019-06-08T08:53:00.391Z,22.50
2019-06-08T08:54:03.464Z,22.54
2019-06-08T08:55:00.935Z,22.54
2019-06-08T08:56:01.239Z,22.56
2019-06-08T08:57:04.463Z,22.47
2019-06-08T08:58:00.892Z,22.56
2019-06-08T08:59:00.913Z,22.57
2019-06-08T09:00:03.508Z,22.60
2019-06-08T09:01:01.619Z,22.59
2019-06-08T09:02:01.044Z,22.49
2019-06-08T09:03:13.182Z,22.57
2019-06-08T09:04:03.289Z,22.52
2019-06-08T09:05:01.981Z,22.50
2019-06-08T09:06:00.590Z,22.52
2019-06-08T09:07:05.671Z,22.49
2019-06-08T09:08:02.066Z,22.57
2019-06-08T09:09:00.849Z,22.52
2019-06-08T09:10:00.588Z,22.57
2019-06-08T09:11:01.739Z,22.60
2019-06-08T09:12:02.231Z,22.57
2019-06-08T09:13:02.954Z,22.56
2019-06-08T09:14:05.203Z,22.49
2019-06-08T09:15:01.763Z,22.54
2019-06-08T09:16:00.765Z,22.47
2019-06-08T09:17:01.522Z,22.47
2019-06-08T09:18:00.957Z,22.52
2019-06-08T09:19:01.012Z,22.50
2019-06-08T09:20:00.128Z,22.44
2019-06-08T09:21:00.344Z,22.52
2019-06-08T09:22:00.376Z,22.50
2019-06-08T09:23:06.702Z,22.52
2019-06-08T09:24:02.598Z,22.53
2019-06-08T09:25:01.155Z,22.53
2019-06-08T09:26:05.994Z,22.49
2019-06-08T09:27:00.946Z,22.50
2019-06-08T09:28:01.254Z,22.52
2019-06-08T09:29:01.086Z,22.47
2019-06-08T09:30:00.716Z,22.50
2019-06-08T09:31:00.343Z,22.44
2019-06-08T09:31:58.982Z,22.49
2019-06-08T09:33:00.584Z,22.56
2019-06-08T09:34:07.515Z,22.46
2019-06-08T09:35:02.346Z,22.50
2019-06-08T09:36:00.862Z,22.52
2019-06-08T09:37:00.163Z,22.57
2019-06-08T09:38:01.139Z,22.59
2019-06-08T09:39:02.695Z,22.54
2019-06-08T09:39:58.949Z,22.56
2019-06-08T09:41:01.233Z,22.54
2019-06-08T09:42:01.893Z,22.57
2019-06-08T09:43:05.398Z,22.53
2019-06-08T09:44:03.171Z,22.53
2019-06-08T09:45:01.961Z,22.47
2019-06-08T09:46:01.593Z,22.59
2019-06-08T09:47:00.975Z,22.53
2019-06-08T09:48:01.813Z,22.49
2019-06-08T09:49:04.807Z,22.54
2019-06-08T09:50:01.855Z,22.60
2019-06-08T09:51:00.423Z,22.62
2019-06-08T09:52:01.444Z,22.52
2019-06-08T09:53:18.239Z,22.59
2019-06-08T09:54:02.044Z,22.52
2019-06-08T09:55:02.298Z,22.52
2019-06-08T09:56:02.311Z,22.59
2019-06-08T09:57:02.070Z,22.56
2019-06-08T09:58:01.871Z,22.52
2019-06-08T09:59:02.758Z,22.56
2019-06-08T10:00:01.091Z,22.52
2019-06-08T10:01:01.999Z,22.56
2019-06-08T10:02:05.162Z,22.57
2019-06-08T10:03:02.186Z,22.52
2019-06-08T10:04:00.807Z,22.56
2019-06-08T10:05:00.542Z,22.56
2019-06-08T10:06:01.528Z,22.60
2019-06-08T10:07:00.571Z,22.56
2019-06-08T10:08:00.554Z,22.49
2019-06-08T10:08:58.528Z,22.53
2019-06-08T10:10:00.355Z,22.53
2019-06-08T10:11:01.406Z,22.60
2019-06-08T10:11:59.561Z,22.56
2019-06-08T10:13:01.305Z,22.56
2019-06-08T10:14:02.656Z,22.56
2019-06-08T10:14:58.784Z,22.49
2019-06-08T10:16:01.913Z,22.52
2019-06-08T10:17:00.770Z,22.54
2019-06-08T10:17:58.854Z,22.54
2019-06-08T10:19:00.402Z,22.57
2019-06-08T10:20:00.648Z,22.56
2019-06-08T10:20:59.428Z,22.57
2019-06-08T10:21:58.771Z,22.57
2019-06-08T10:23:01.217Z,22.49
2019-06-08T10:24:01.009Z,22.56
2019-06-08T10:25:02.143Z,22.57
2019-06-08T10:26:01.316Z,22.56
2019-06-08T10:26:57.375Z,22.60
2019-06-08T10:28:02.829Z,22.56
2019-06-08T10:29:01.189Z,22.57
2019-06-08T10:30:00.848Z,22.50
2019-06-08T10:30:59.647Z,22.60
2019-06-08T10:31:57.295Z,22.60
2019-06-08T10:33:00.449Z,22.56
2019-06-08T10:34:00.601Z,22.57
2019-06-08T10:35:00.345Z,22.53
2019-06-08T10:36:00.672Z,22.54
2019-06-08T10:36:58.897Z,22.57
2019-06-08T10:38:02.809Z,22.57
2019-06-08T10:39:02.726Z,22.64
2019-06-08T10:40:00.653Z,22.65
2019-06-08T10:41:04.754Z,22.60
2019-06-08T10:42:01.099Z,22.53
2019-06-08T10:42:59.852Z,22.54
2019-06-08T10:43:57.281Z,22.59
2019-06-08T10:45:02.701Z,22.62
2019-06-08T10:46:04.929Z,22.59
2019-06-08T10:47:01.354Z,22.56
2019-06-08T10:47:59.407Z,22.52
2019-06-08T10:48:57.413Z,22.54
2019-06-08T10:50:01.670Z,22.60
2019-06-08T10:51:00.414Z,22.56
2019-06-08T10:52:01.154Z,22.56
2019-06-08T10:53:02.141Z,22.57
2019-06-08T10:53:58.056Z,22.53
2019-06-08T10:54:59.786Z,22.53
2019-06-08T10:55:58.225Z,22.54
2019-06-08T10:56:59.769Z,22.53
2019-06-08T10:57:58.141Z,22.60
2019-06-08T10:58:58.051Z,22.56
2019-06-08T10:59:57.919Z,22.62
2019-06-08T11:00:59.694Z,22.59
2019-06-08T11:02:00.973Z,22.53
2019-06-08T11:03:01.337Z,22.56
2019-06-08T11:03:58.477Z,22.64
2019-06-08T11:04:58.802Z,22.59
2019-06-08T11:05:59.172Z,22.59
2019-06-08T11:07:01.031Z,22.57
2019-06-08T11:07:59.306Z,22.59
2019-06-08T11:08:58.550Z,22.59
2019-06-08T11:09:58.674Z,22.54
2019-06-08T11:10:57.898Z,22.59
2019-06-08T11:11:58.408Z,22.62
2019-06-08T11:12:58.247Z,22.56
2019-06-08T11:13:58.460Z,22.57
2019-06-08T11:14:58.399Z,22.57
2019-06-08T11:15:58.628Z,22.59
2019-06-08T11:16:56.806Z,22.67
2019-06-08T11:18:00.446Z,22.59
2019-06-08T11:18:59.106Z,22.60
2019-06-08T11:19:59.441Z,22.60
2019-06-08T11:20:59.499Z,22.62
2019-06-08T11:21:58.040Z,22.60
2019-06-08T11:22:58.359Z,22.56
2019-06-08T11:24:07.539Z,22.59
2019-06-08T11:24:58.853Z,22.65
2019-06-08T11:25:59.484Z,22.53
2019-06-08T11:26:59.617Z,22.59
2019-06-08T11:27:58.664Z,22.62
2019-06-08T11:28:58.673Z,22.68
2019-06-08T11:29:57.576Z,22.64
2019-06-08T11:30:56.692Z,22.59
2019-06-08T11:31:58.656Z,22.62
2019-06-08T11:32:57.691Z,22.65
2019-06-08T11:33:58.908Z,22.60
2019-06-08T11:34:56.596Z,22.67
2019-06-08T11:35:58.141Z,22.67
2019-06-08T11:36:59.632Z,22.65
2019-06-08T11:37:58.474Z,22.62
2019-06-08T11:38:58.802Z,22.57
2019-06-08T11:39:57.693Z,22.68
2019-06-08T11:40:57.520Z,22.56
2019-06-08T11:41:58.656Z,22.67
2019-06-08T11:42:58.528Z,22.68
2019-06-08T11:43:59.608Z,22.56
2019-06-08T11:44:58.510Z,22.59
2019-06-08T11:45:58.385Z,22.59
2019-06-08T11:46:57.521Z,22.67
2019-06-08T11:47:58.393Z,22.68
2019-06-08T11:48:57.690Z,22.56
2019-06-08T11:49:57.652Z,22.64
2019-06-08T11:50:58.370Z,22.57
2019-06-08T11:51:58.344Z,22.69
2019-06-08T11:53:00.090Z,22.65
2019-06-08T11:53:56.388Z,22.57
2019-06-08T11:54:57.343Z,22.69
2019-06-08T11:55:58.551Z,22.65
2019-06-08T11:56:57.602Z,22.69
2019-06-08T11:57:58.508Z,22.67
2019-06-08T11:58:57.949Z,22.65
2019-06-08T11:59:58.343Z,22.57
2019-06-08T12:01:00.833Z,22.57
2019-06-08T12:01:58.572Z,22.62
2019-06-08T12:02:58.110Z,22.56
2019-06-08T12:03:57.942Z,22.59
2019-06-08T12:04:57.258Z,22.68
2019-06-08T12:05:58.279Z,22.68
2019-06-08T12:06:58.309Z,22.68
2019-06-08T12:07:57.834Z,22.67
2019-06-08T12:08:57.335Z,22.65
2019-06-08T12:09:58.345Z,22.65
2019-06-08T12:11:01.187Z,22.69
2019-06-08T12:11:58.135Z,22.64
2019-06-08T12:12:57.418Z,22.67
2019-06-08T12:13:58.347Z,22.56
2019-06-08T12:14:58.210Z,22.60
2019-06-08T12:15:58.748Z,22.57
2019-06-08T12:16:58.145Z,22.53
2019-06-08T12:17:58.657Z,22.65
2019-06-08T12:18:58.430Z,22.60
2019-06-08T12:19:57.701Z,22.64
2019-06-08T12:20:58.332Z,22.67
2019-06-08T12:21:58.008Z,22.67
2019-06-08T12:22:56.097Z,22.59
2019-06-08T12:23:56.054Z,22.56
2019-06-08T12:24:56.050Z,22.59
2019-06-08T12:25:56.031Z,22.64
2019-06-08T12:27:07.503Z,22.67
2019-06-08T12:27:58.552Z,22.67
2019-06-08T12:28:57.965Z,22.68
2019-06-08T12:29:58.794Z,22.59
2019-06-08T12:30:55.975Z,22.68
2019-06-08T12:31:58.380Z,22.67
2019-06-08T12:32:58.038Z,22.56
2019-06-08T12:33:58.616Z,22.57
2019-06-08T12:34:59.783Z,22.67
2019-06-08T12:35:57.912Z,22.57
2019-06-08T12:36:58.173Z,22.68
2019-06-08T12:37:58.119Z,22.65
2019-06-08T12:38:55.888Z,22.57
2019-06-08T12:39:57.974Z,22.64
2019-06-08T12:40:58.717Z,22.65
2019-06-08T12:41:58.203Z,22.57
2019-06-08T12:42:59.465Z,22.65
2019-06-08T12:43:57.941Z,22.62
2019-06-08T12:44:55.821Z,22.60
2019-06-08T12:45:57.899Z,22.57
2019-06-08T12:46:58.393Z,22.67
2019-06-08T12:47:55.790Z,22.56
2019-06-08T12:48:58.075Z,22.67
2019-06-08T12:49:58.278Z,22.67
2019-06-08T12:50:55.755Z,22.65
2019-06-08T12:51:58.119Z,22.69